sensor_id;sensor_type;location;lat;lon;timestamp;P1;durP1;ratioP1;P2;durP2;ratioP2
34060;SDS011;20336;-33.424;-70.638;2022-07-29T00:02:21;46.93;;;26.23;;
34060;SDS011;20336;-33.424;-70.638;2022-07-29T00:04:48;50.30;;;26.73;;
34060;SDS011;20336;-33.424;-70.638;2022-07-29T00:07:15;53.47;;;26.73;;
34060;SDS011;20336;-33.424;-70.638;2022-07-29T00:09:42;49.33;;;25.63;;
34060;SDS011;20336;-33.424;-70.638;2022-07-29T00:12:09;51.60;;;27.47;;
34060;SDS011;20336;-33.424;-70.638;2022-07-29T00:14:36;52.53;;;26.33;;
34060;SDS011;20336;-33.424;-70.638;2022-07-29T00:17:03;49.07;;;26.53;;
34060;SDS011;20336;-33.424;-70.638;2022-07-29T00:19:29;48.37;;;25.50;;
34060;SDS011;20336;-33.424;-70.638;2022-07-29T00:21:56;47.90;;;26.67;;
34060;SDS011;20336;-33.424;-70.638;2022-07-29T00:24:23;50.50;;;26.67;;
34060;SDS011;20336;-33.424;-70.638;2022-07-29T00:26:50;53.20;;;27.50;;
34060;SDS011;20336;-33.424;-70.638;2022-07-29T00:29:17;54.63;;;27.67;;
34060;SDS011;20336;-33.424;-70.638;2022-07-29T00:31:44;54.63;;;27.40;;
34060;SDS011;20336;-33.424;-70.638;2022-07-29T00:34:11;58.43;;;27.73;;
34060;SDS011;20336;-33.424;-70.638;2022-07-29T00:36:56;51.23;;;27.13;;
34060;SDS011;20336;-33.424;-70.638;2022-07-29T00:39:23;50.80;;;26.90;;
34060;SDS011;20336;-33.424;-70.638;2022-07-29T00:41:50;55.00;;;27.17;;
34060;SDS011;20336;-33.424;-70.638;2022-07-29T00:44:17;51.43;;;26.67;;
34060;SDS011;20336;-33.424;-70.638;2022-07-29T00:46:43;54.57;;;27.20;;
34060;SDS011;20336;-33.424;-70.638;2022-07-29T00:49:10;54.30;;;27.57;;
34060;SDS011;20336;-33.424;-70.638;2022-07-29T00:51:37;51.50;;;27.03;;
34060;SDS011;20336;-33.424;-70.638;2022-07-29T00:54:05;62.33;;;28.73;;
34060;SDS011;20336;-33.424;-70.638;2022-07-29T00:56:32;55.03;;;28.13;;
34060;SDS011;20336;-33.424;-70.638;2022-07-29T00:58:59;61.20;;;28.27;;
34060;SDS011;20336;-33.424;-70.638;2022-07-29T01:01:26;57.20;;;28.33;;
34060;SDS011;20336;-33.424;-70.638;2022-07-29T01:03:53;57.77;;;28.30;;
34060;SDS011;20336;-33.424;-70.638;2022-07-29T01:06:20;58.03;;;28.00;;
34060;SDS011;20336;-33.424;-70.638;2022-07-29T01:08:47;56.50;;;29.03;;
34060;SDS011;20336;-33.424;-70.638;2022-07-29T01:11:15;55.77;;;29.27;;
34060;SDS011;20336;-33.424;-70.638;2022-07-29T01:13:42;56.17;;;28.70;;
34060;SDS011;20336;-33.424;-70.638;2022-07-29T01:16:12;63.27;;;30.57;;
34060;SDS011;20336;-33.424;-70.638;2022-07-29T01:18:42;62.20;;;29.77;;
34060;SDS011;20336;-33.424;-70.638;2022-07-29T01:34:07;61.87;;;30.40;;
34060;SDS011;20336;-33.424;-70.638;2022-07-29T01:36:36;59.43;;;30.90;;
34060;SDS011;20336;-33.424;-70.638;2022-07-29T01:39:05;58.97;;;29.47;;
34060;SDS011;20336;-33.424;-70.638;2022-07-29T01:41:33;53.37;;;27.47;;
34060;SDS011;20336;-33.424;-70.638;2022-07-29T01:44:11;54.00;;;27.30;;
34060;SDS011;20336;-33.424;-70.638;2022-07-29T01:46:40;58.30;;;27.90;;
34060;SDS011;20336;-33.424;-70.638;2022-07-29T01:49:11;55.13;;;28.00;;
34060;SDS011;20336;-33.424;-70.638;2022-07-29T01:51:50;56.67;;;26.90;;
34060;SDS011;20336;-33.424;-70.638;2022-07-29T01:56:48;55.00;;;28.93;;
34060;SDS011;20336;-33.424;-70.638;2022-07-29T01:59:16;63.40;;;28.30;;
34060;SDS011;20336;-33.424;-70.638;2022-07-29T02:01:44;45.93;;;24.57;;
34060;SDS011;20336;-33.424;-70.638;2022-07-29T02:04:12;47.10;;;25.40;;
34060;SDS011;20336;-33.424;-70.638;2022-07-29T02:06:40;47.57;;;23.40;;
34060;SDS011;20336;-33.424;-70.638;2022-07-29T02:09:08;44.43;;;23.37;;
34060;SDS011;20336;-33.424;-70.638;2022-07-29T02:11:36;42.17;;;23.77;;
34060;SDS011;20336;-33.424;-70.638;2022-07-29T02:14:04;45.13;;;23.90;;
34060;SDS011;20336;-33.424;-70.638;2022-07-29T02:16:31;45.30;;;23.67;;
34060;SDS011;20336;-33.424;-70.638;2022-07-29T02:19:00;41.60;;;23.40;;
34060;SDS011;20336;-33.424;-70.638;2022-07-29T02:21:27;43.87;;;24.17;;
34060;SDS011;20336;-33.424;-70.638;2022-07-29T02:23:55;50.07;;;24.87;;
34060;SDS011;20336;-33.424;-70.638;2022-07-29T02:26:24;44.13;;;24.50;;
34060;SDS011;20336;-33.424;-70.638;2022-07-29T02:28:54;47.77;;;26.20;;
34060;SDS011;20336;-33.424;-70.638;2022-07-29T02:31:23;49.67;;;25.20;;
34060;SDS011;20336;-33.424;-70.638;2022-07-29T02:33:51;59.53;;;26.43;;
34060;SDS011;20336;-33.424;-70.638;2022-07-29T02:36:20;54.77;;;27.07;;
34060;SDS011;20336;-33.424;-70.638;2022-07-29T02:38:47;53.97;;;27.37;;
34060;SDS011;20336;-33.424;-70.638;2022-07-29T02:41:20;52.70;;;26.93;;
34060;SDS011;20336;-33.424;-70.638;2022-07-29T02:43:50;52.03;;;26.57;;
34060;SDS011;20336;-33.424;-70.638;2022-07-29T02:46:21;64.63;;;29.60;;
34060;SDS011;20336;-33.424;-70.638;2022-07-29T02:48:55;57.00;;;29.03;;
34060;SDS011;20336;-33.424;-70.638;2022-07-29T02:51:28;57.30;;;27.57;;
34060;SDS011;20336;-33.424;-70.638;2022-07-29T02:53:55;61.30;;;27.97;;
34060;SDS011;20336;-33.424;-70.638;2022-07-29T02:56:23;60.57;;;28.93;;
34060;SDS011;20336;-33.424;-70.638;2022-07-29T02:58:55;60.47;;;29.03;;
34060;SDS011;20336;-33.424;-70.638;2022-07-29T03:01:23;63.70;;;27.90;;
34060;SDS011;20336;-33.424;-70.638;2022-07-29T03:03:51;60.20;;;28.63;;
34060;SDS011;20336;-33.424;-70.638;2022-07-29T03:06:20;54.27;;;27.30;;
34060;SDS011;20336;-33.424;-70.638;2022-07-29T03:08:47;57.80;;;27.50;;
34060;SDS011;20336;-33.424;-70.638;2022-07-29T03:11:14;65.20;;;28.57;;
34060;SDS011;20336;-33.424;-70.638;2022-07-29T03:13:42;63.93;;;28.60;;
34060;SDS011;20336;-33.424;-70.638;2022-07-29T03:16:09;62.07;;;27.97;;
34060;SDS011;20336;-33.424;-70.638;2022-07-29T03:18:36;55.00;;;27.00;;
34060;SDS011;20336;-33.424;-70.638;2022-07-29T03:21:03;52.37;;;26.90;;
34060;SDS011;20336;-33.424;-70.638;2022-07-29T03:23:30;61.80;;;26.90;;
34060;SDS011;20336;-33.424;-70.638;2022-07-29T03:25:57;57.37;;;26.63;;
34060;SDS011;20336;-33.424;-70.638;2022-07-29T03:28:24;64.57;;;29.07;;
34060;SDS011;20336;-33.424;-70.638;2022-07-29T03:30:52;59.83;;;27.17;;
34060;SDS011;20336;-33.424;-70.638;2022-07-29T03:33:19;63.40;;;29.00;;
34060;SDS011;20336;-33.424;-70.638;2022-07-29T03:35:56;63.17;;;29.20;;
34060;SDS011;20336;-33.424;-70.638;2022-07-29T03:38:25;58.57;;;27.90;;
34060;SDS011;20336;-33.424;-70.638;2022-07-29T03:40:56;59.43;;;28.73;;
34060;SDS011;20336;-33.424;-70.638;2022-07-29T03:43:26;52.50;;;25.07;;
34060;SDS011;20336;-33.424;-70.638;2022-07-29T03:45:56;58.87;;;26.27;;
34060;SDS011;20336;-33.424;-70.638;2022-07-29T03:48:24;55.27;;;25.73;;
34060;SDS011;20336;-33.424;-70.638;2022-07-29T03:50:51;50.93;;;24.87;;
34060;SDS011;20336;-33.424;-70.638;2022-07-29T03:53:18;50.67;;;25.93;;
34060;SDS011;20336;-33.424;-70.638;2022-07-29T03:55:46;53.53;;;25.47;;
34060;SDS011;20336;-33.424;-70.638;2022-07-29T03:58:14;52.23;;;25.03;;
34060;SDS011;20336;-33.424;-70.638;2022-07-29T04:00:41;47.83;;;22.83;;
34060;SDS011;20336;-33.424;-70.638;2022-07-29T04:03:09;47.70;;;23.27;;
34060;SDS011;20336;-33.424;-70.638;2022-07-29T04:05:36;48.27;;;23.90;;
34060;SDS011;20336;-33.424;-70.638;2022-07-29T04:08:03;53.43;;;25.13;;
34060;SDS011;20336;-33.424;-70.638;2022-07-29T04:10:30;52.37;;;23.30;;
34060;SDS011;20336;-33.424;-70.638;2022-07-29T04:12:57;53.07;;;26.13;;
34060;SDS011;20336;-33.424;-70.638;2022-07-29T04:15:24;50.93;;;25.40;;
34060;SDS011;20336;-33.424;-70.638;2022-07-29T04:17:51;60.00;;;27.47;;
34060;SDS011;20336;-33.424;-70.638;2022-07-29T04:20:17;61.37;;;27.23;;
34060;SDS011;20336;-33.424;-70.638;2022-07-29T04:22:44;56.43;;;27.97;;
34060;SDS011;20336;-33.424;-70.638;2022-07-29T04:25:11;56.33;;;27.97;;
34060;SDS011;20336;-33.424;-70.638;2022-07-29T04:27:38;62.20;;;29.90;;
34060;SDS011;20336;-33.424;-70.638;2022-07-29T04:30:25;48.43;;;26.00;;
34060;SDS011;20336;-33.424;-70.638;2022-07-29T04:32:52;55.10;;;25.33;;
34060;SDS011;20336;-33.424;-70.638;2022-07-29T04:35:19;56.83;;;25.97;;
34060;SDS011;20336;-33.424;-70.638;2022-07-29T04:37:46;55.47;;;27.00;;
34060;SDS011;20336;-33.424;-70.638;2022-07-29T04:40:13;51.97;;;25.50;;
34060;SDS011;20336;-33.424;-70.638;2022-07-29T04:42:40;52.87;;;26.33;;
34060;SDS011;20336;-33.424;-70.638;2022-07-29T04:45:06;52.77;;;25.83;;
34060;SDS011;20336;-33.424;-70.638;2022-07-29T04:47:33;61.17;;;27.67;;
34060;SDS011;20336;-33.424;-70.638;2022-07-29T04:50:00;64.97;;;27.53;;
34060;SDS011;20336;-33.424;-70.638;2022-07-29T04:52:27;54.27;;;24.67;;
34060;SDS011;20336;-33.424;-70.638;2022-07-29T04:54:54;56.77;;;25.27;;
34060;SDS011;20336;-33.424;-70.638;2022-07-29T04:57:21;52.57;;;24.93;;
34060;SDS011;20336;-33.424;-70.638;2022-07-29T04:59:48;55.37;;;25.23;;
34060;SDS011;20336;-33.424;-70.638;2022-07-29T05:02:14;54.23;;;24.90;;
34060;SDS011;20336;-33.424;-70.638;2022-07-29T05:04:41;55.67;;;26.53;;
34060;SDS011;20336;-33.424;-70.638;2022-07-29T05:07:08;54.93;;;26.80;;
34060;SDS011;20336;-33.424;-70.638;2022-07-29T05:09:35;54.77;;;25.50;;
34060;SDS011;20336;-33.424;-70.638;2022-07-29T05:12:02;52.90;;;26.10;;
34060;SDS011;20336;-33.424;-70.638;2022-07-29T05:14:29;49.87;;;25.40;;
34060;SDS011;20336;-33.424;-70.638;2022-07-29T05:16:55;50.90;;;24.97;;
34060;SDS011;20336;-33.424;-70.638;2022-07-29T05:19:22;58.20;;;25.00;;
34060;SDS011;20336;-33.424;-70.638;2022-07-29T05:21:49;50.27;;;23.13;;
34060;SDS011;20336;-33.424;-70.638;2022-07-29T05:24:16;53.07;;;24.70;;
34060;SDS011;20336;-33.424;-70.638;2022-07-29T05:26:43;57.37;;;25.67;;
34060;SDS011;20336;-33.424;-70.638;2022-07-29T05:29:10;52.17;;;24.03;;
34060;SDS011;20336;-33.424;-70.638;2022-07-29T05:31:37;54.03;;;25.13;;
34060;SDS011;20336;-33.424;-70.638;2022-07-29T05:34:03;48.73;;;22.10;;
34060;SDS011;20336;-33.424;-70.638;2022-07-29T05:36:30;50.80;;;22.90;;
34060;SDS011;20336;-33.424;-70.638;2022-07-29T05:38:57;47.10;;;22.37;;
34060;SDS011;20336;-33.424;-70.638;2022-07-29T05:41:24;46.90;;;21.83;;
34060;SDS011;20336;-33.424;-70.638;2022-07-29T05:43:51;43.33;;;20.40;;
34060;SDS011;20336;-33.424;-70.638;2022-07-29T05:46:18;45.90;;;21.40;;
34060;SDS011;20336;-33.424;-70.638;2022-07-29T05:48:45;40.50;;;18.97;;
34060;SDS011;20336;-33.424;-70.638;2022-07-29T05:51:12;42.83;;;20.87;;
34060;SDS011;20336;-33.424;-70.638;2022-07-29T05:53:39;43.30;;;21.13;;
34060;SDS011;20336;-33.424;-70.638;2022-07-29T05:56:06;45.27;;;20.63;;
34060;SDS011;20336;-33.424;-70.638;2022-07-29T05:58:33;42.33;;;20.07;;
34060;SDS011;20336;-33.424;-70.638;2022-07-29T06:01:00;35.77;;;17.77;;
34060;SDS011;20336;-33.424;-70.638;2022-07-29T06:03:27;33.97;;;15.40;;
34060;SDS011;20336;-33.424;-70.638;2022-07-29T06:05:54;32.90;;;16.13;;
34060;SDS011;20336;-33.424;-70.638;2022-07-29T06:08:21;33.80;;;15.63;;
34060;SDS011;20336;-33.424;-70.638;2022-07-29T06:10:48;31.40;;;15.80;;
34060;SDS011;20336;-33.424;-70.638;2022-07-29T06:13:15;37.37;;;15.87;;
34060;SDS011;20336;-33.424;-70.638;2022-07-29T06:15:42;29.17;;;13.50;;
34060;SDS011;20336;-33.424;-70.638;2022-07-29T06:18:09;26.67;;;12.83;;
34060;SDS011;20336;-33.424;-70.638;2022-07-29T06:20:36;32.33;;;13.23;;
34060;SDS011;20336;-33.424;-70.638;2022-07-29T06:23:03;27.63;;;12.63;;
34060;SDS011;20336;-33.424;-70.638;2022-07-29T06:25:30;28.50;;;12.90;;
34060;SDS011;20336;-33.424;-70.638;2022-07-29T06:28:03;28.90;;;12.50;;
34060;SDS011;20336;-33.424;-70.638;2022-07-29T06:30:30;31.30;;;13.10;;
34060;SDS011;20336;-33.424;-70.638;2022-07-29T06:32:56;29.40;;;14.60;;
34060;SDS011;20336;-33.424;-70.638;2022-07-29T06:35:23;26.30;;;12.37;;
34060;SDS011;20336;-33.424;-70.638;2022-07-29T06:37:50;25.87;;;11.87;;
34060;SDS011;20336;-33.424;-70.638;2022-07-29T06:40:18;28.63;;;12.67;;
34060;SDS011;20336;-33.424;-70.638;2022-07-29T06:43:03;32.17;;;15.23;;
34060;SDS011;20336;-33.424;-70.638;2022-07-29T06:45:33;33.83;;;14.83;;
34060;SDS011;20336;-33.424;-70.638;2022-07-29T06:48:00;29.23;;;14.77;;
34060;SDS011;20336;-33.424;-70.638;2022-07-29T06:50:27;28.73;;;12.90;;
34060;SDS011;20336;-33.424;-70.638;2022-07-29T06:52:54;36.30;;;16.57;;
34060;SDS011;20336;-33.424;-70.638;2022-07-29T06:55:21;31.60;;;15.53;;
34060;SDS011;20336;-33.424;-70.638;2022-07-29T06:57:48;36.17;;;15.23;;
34060;SDS011;20336;-33.424;-70.638;2022-07-29T07:00:14;32.93;;;14.63;;
34060;SDS011;20336;-33.424;-70.638;2022-07-29T07:02:41;36.17;;;16.00;;
34060;SDS011;20336;-33.424;-70.638;2022-07-29T07:05:08;30.10;;;14.27;;
34060;SDS011;20336;-33.424;-70.638;2022-07-29T07:07:35;28.50;;;13.17;;
34060;SDS011;20336;-33.424;-70.638;2022-07-29T07:10:02;29.50;;;12.90;;
34060;SDS011;20336;-33.424;-70.638;2022-07-29T07:12:29;28.50;;;12.63;;
34060;SDS011;20336;-33.424;-70.638;2022-07-29T07:14:56;29.33;;;13.53;;
34060;SDS011;20336;-33.424;-70.638;2022-07-29T07:17:22;28.07;;;12.83;;
34060;SDS011;20336;-33.424;-70.638;2022-07-29T07:19:49;33.33;;;14.67;;
34060;SDS011;20336;-33.424;-70.638;2022-07-29T07:22:16;28.60;;;13.70;;
34060;SDS011;20336;-33.424;-70.638;2022-07-29T07:24:43;32.93;;;14.60;;
34060;SDS011;20336;-33.424;-70.638;2022-07-29T07:27:10;29.87;;;13.33;;
34060;SDS011;20336;-33.424;-70.638;2022-07-29T07:29:36;33.67;;;14.17;;
34060;SDS011;20336;-33.424;-70.638;2022-07-29T07:32:06;27.97;;;13.57;;
34060;SDS011;20336;-33.424;-70.638;2022-07-29T07:34:33;27.47;;;12.47;;
34060;SDS011;20336;-33.424;-70.638;2022-07-29T07:37:00;24.47;;;11.80;;
34060;SDS011;20336;-33.424;-70.638;2022-07-29T07:39:27;28.63;;;14.33;;
34060;SDS011;20336;-33.424;-70.638;2022-07-29T07:41:54;29.63;;;13.50;;
34060;SDS011;20336;-33.424;-70.638;2022-07-29T07:44:21;27.73;;;12.23;;
34060;SDS011;20336;-33.424;-70.638;2022-07-29T07:46:49;26.37;;;12.30;;
34060;SDS011;20336;-33.424;-70.638;2022-07-29T07:49:16;37.23;;;16.57;;
34060;SDS011;20336;-33.424;-70.638;2022-07-29T07:51:42;36.83;;;16.77;;
34060;SDS011;20336;-33.424;-70.638;2022-07-29T07:54:09;33.33;;;14.90;;
34060;SDS011;20336;-33.424;-70.638;2022-07-29T07:56:36;38.97;;;16.37;;
34060;SDS011;20336;-33.424;-70.638;2022-07-29T07:59:03;37.53;;;13.90;;
34060;SDS011;20336;-33.424;-70.638;2022-07-29T08:01:30;28.43;;;12.83;;
34060;SDS011;20336;-33.424;-70.638;2022-07-29T08:03:56;30.70;;;12.57;;
34060;SDS011;20336;-33.424;-70.638;2022-07-29T08:06:23;29.03;;;12.07;;
34060;SDS011;20336;-33.424;-70.638;2022-07-29T08:08:50;25.73;;;11.30;;
34060;SDS011;20336;-33.424;-70.638;2022-07-29T08:11:17;26.97;;;12.20;;
34060;SDS011;20336;-33.424;-70.638;2022-07-29T08:13:44;29.83;;;12.20;;
34060;SDS011;20336;-33.424;-70.638;2022-07-29T08:16:12;36.90;;;14.70;;
34060;SDS011;20336;-33.424;-70.638;2022-07-29T08:18:41;38.30;;;17.47;;
34060;SDS011;20336;-33.424;-70.638;2022-07-29T08:21:08;42.27;;;18.70;;
34060;SDS011;20336;-33.424;-70.638;2022-07-29T08:23:34;48.53;;;19.27;;
34060;SDS011;20336;-33.424;-70.638;2022-07-29T08:26:05;48.43;;;19.00;;
34060;SDS011;20336;-33.424;-70.638;2022-07-29T08:28:36;43.13;;;16.97;;
34060;SDS011;20336;-33.424;-70.638;2022-07-29T08:31:03;39.67;;;16.63;;
34060;SDS011;20336;-33.424;-70.638;2022-07-29T08:33:30;43.10;;;16.93;;
34060;SDS011;20336;-33.424;-70.638;2022-07-29T08:35:57;49.40;;;18.30;;
34060;SDS011;20336;-33.424;-70.638;2022-07-29T08:38:24;37.83;;;15.27;;
34060;SDS011;20336;-33.424;-70.638;2022-07-29T08:40:52;34.50;;;13.50;;
34060;SDS011;20336;-33.424;-70.638;2022-07-29T08:43:19;35.60;;;14.70;;
34060;SDS011;20336;-33.424;-70.638;2022-07-29T08:45:47;30.03;;;12.20;;
34060;SDS011;20336;-33.424;-70.638;2022-07-29T08:48:14;27.03;;;10.70;;
34060;SDS011;20336;-33.424;-70.638;2022-07-29T08:50:42;27.07;;;12.73;;
34060;SDS011;20336;-33.424;-70.638;2022-07-29T08:53:10;38.50;;;13.70;;
34060;SDS011;20336;-33.424;-70.638;2022-07-29T08:55:44;40.20;;;16.10;;
34060;SDS011;20336;-33.424;-70.638;2022-07-29T08:58:11;42.73;;;16.40;;
34060;SDS011;20336;-33.424;-70.638;2022-07-29T09:00:41;34.63;;;14.10;;
34060;SDS011;20336;-33.424;-70.638;2022-07-29T09:03:09;34.13;;;14.27;;
34060;SDS011;20336;-33.424;-70.638;2022-07-29T09:05:40;39.20;;;16.23;;
34060;SDS011;20336;-33.424;-70.638;2022-07-29T09:08:08;44.43;;;17.47;;
34060;SDS011;20336;-33.424;-70.638;2022-07-29T09:10:36;42.80;;;16.77;;
34060;SDS011;20336;-33.424;-70.638;2022-07-29T09:13:03;39.13;;;13.73;;
34060;SDS011;20336;-33.424;-70.638;2022-07-29T09:15:30;26.43;;;10.50;;
34060;SDS011;20336;-33.424;-70.638;2022-07-29T09:17:57;34.23;;;12.73;;
34060;SDS011;20336;-33.424;-70.638;2022-07-29T09:20:25;32.17;;;13.37;;
34060;SDS011;20336;-33.424;-70.638;2022-07-29T09:23:12;19.53;;;8.17;;
34060;SDS011;20336;-33.424;-70.638;2022-07-29T09:25:40;21.87;;;8.53;;
34060;SDS011;20336;-33.424;-70.638;2022-07-29T09:28:11;22.73;;;10.43;;
34060;SDS011;20336;-33.424;-70.638;2022-07-29T09:33:17;23.37;;;9.43;;
34060;SDS011;20336;-33.424;-70.638;2022-07-29T09:35:44;26.73;;;10.80;;
34060;SDS011;20336;-33.424;-70.638;2022-07-29T09:38:12;22.73;;;9.27;;
34060;SDS011;20336;-33.424;-70.638;2022-07-29T09:40:40;20.10;;;7.87;;
34060;SDS011;20336;-33.424;-70.638;2022-07-29T09:43:11;17.80;;;7.50;;
34060;SDS011;20336;-33.424;-70.638;2022-07-29T09:45:38;15.70;;;6.60;;
34060;SDS011;20336;-33.424;-70.638;2022-07-29T09:48:16;18.83;;;6.50;;
34060;SDS011;20336;-33.424;-70.638;2022-07-29T09:50:44;16.10;;;7.33;;
34060;SDS011;20336;-33.424;-70.638;2022-07-29T09:53:12;17.10;;;7.33;;
34060;SDS011;20336;-33.424;-70.638;2022-07-29T09:55:55;21.83;;;8.97;;
34060;SDS011;20336;-33.424;-70.638;2022-07-29T09:58:22;19.07;;;8.20;;
34060;SDS011;20336;-33.424;-70.638;2022-07-29T10:00:50;21.33;;;8.50;;
34060;SDS011;20336;-33.424;-70.638;2022-07-29T10:03:17;22.00;;;8.97;;
34060;SDS011;20336;-33.424;-70.638;2022-07-29T10:05:44;21.53;;;9.63;;
34060;SDS011;20336;-33.424;-70.638;2022-07-29T10:08:11;19.50;;;8.10;;
34060;SDS011;20336;-33.424;-70.638;2022-07-29T10:10:42;17.03;;;6.80;;
34060;SDS011;20336;-33.424;-70.638;2022-07-29T10:13:10;15.00;;;6.23;;
34060;SDS011;20336;-33.424;-70.638;2022-07-29T10:15:39;13.53;;;6.10;;
34060;SDS011;20336;-33.424;-70.638;2022-07-29T10:18:10;12.27;;;5.67;;
34060;SDS011;20336;-33.424;-70.638;2022-07-29T10:20:37;15.03;;;6.90;;
34060;SDS011;20336;-33.424;-70.638;2022-07-29T10:23:05;25.20;;;10.03;;
34060;SDS011;20336;-33.424;-70.638;2022-07-29T10:25:32;24.10;;;10.50;;
34060;SDS011;20336;-33.424;-70.638;2022-07-29T10:27:59;27.90;;;11.57;;
34060;SDS011;20336;-33.424;-70.638;2022-07-29T10:30:25;24.77;;;11.73;;
34060;SDS011;20336;-33.424;-70.638;2022-07-29T10:35:29;12.17;;;4.73;;
34060;SDS011;20336;-33.424;-70.638;2022-07-29T10:43:41;16.97;;;7.10;;
34060;SDS011;20336;-33.424;-70.638;2022-07-29T10:46:09;17.23;;;7.63;;
34060;SDS011;20336;-33.424;-70.638;2022-07-29T10:48:38;23.60;;;10.07;;
34060;SDS011;20336;-33.424;-70.638;2022-07-29T10:51:22;30.27;;;13.27;;
34060;SDS011;20336;-33.424;-70.638;2022-07-29T10:53:52;26.87;;;11.90;;
34060;SDS011;20336;-33.424;-70.638;2022-07-29T10:56:26;25.20;;;10.40;;
34060;SDS011;20336;-33.424;-70.638;2022-07-29T11:01:38;19.17;;;9.07;;
34060;SDS011;20336;-33.424;-70.638;2022-07-29T11:04:05;18.93;;;7.40;;
34060;SDS011;20336;-33.424;-70.638;2022-07-29T11:07:06;15.33;;;6.90;;
34060;SDS011;20336;-33.424;-70.638;2022-07-29T11:09:33;14.27;;;6.30;;
34060;SDS011;20336;-33.424;-70.638;2022-07-29T11:12:00;18.27;;;7.10;;
34060;SDS011;20336;-33.424;-70.638;2022-07-29T11:17:12;19.73;;;8.33;;
34060;SDS011;20336;-33.424;-70.638;2022-07-29T11:19:39;15.83;;;6.30;;
34060;SDS011;20336;-33.424;-70.638;2022-07-29T11:22:08;20.00;;;8.13;;
34060;SDS011;20336;-33.424;-70.638;2022-07-29T11:24:35;25.27;;;9.03;;
34060;SDS011;20336;-33.424;-70.638;2022-07-29T11:27:16;20.93;;;7.93;;
34060;SDS011;20336;-33.424;-70.638;2022-07-29T11:29:50;22.60;;;8.90;;
34060;SDS011;20336;-33.424;-70.638;2022-07-29T11:32:18;26.77;;;10.37;;
34060;SDS011;20336;-33.424;-70.638;2022-07-29T11:34:45;26.03;;;11.43;;
34060;SDS011;20336;-33.424;-70.638;2022-07-29T11:37:16;21.77;;;8.50;;
34060;SDS011;20336;-33.424;-70.638;2022-07-29T11:39:45;24.27;;;9.43;;
34060;SDS011;20336;-33.424;-70.638;2022-07-29T11:47:30;36.00;;;14.53;;
34060;SDS011;20336;-33.424;-70.638;2022-07-29T11:49:57;33.70;;;14.57;;
34060;SDS011;20336;-33.424;-70.638;2022-07-29T11:52:32;33.43;;;14.30;;
34060;SDS011;20336;-33.424;-70.638;2022-07-29T11:55:00;28.67;;;12.20;;
34060;SDS011;20336;-33.424;-70.638;2022-07-29T11:57:28;27.13;;;10.90;;
34060;SDS011;20336;-33.424;-70.638;2022-07-29T11:59:55;26.53;;;10.27;;
34060;SDS011;20336;-33.424;-70.638;2022-07-29T12:02:24;26.67;;;11.50;;
34060;SDS011;20336;-33.424;-70.638;2022-07-29T12:04:55;36.00;;;15.87;;
34060;SDS011;20336;-33.424;-70.638;2022-07-29T12:07:28;28.03;;;11.13;;
34060;SDS011;20336;-33.424;-70.638;2022-07-29T12:09:56;26.07;;;10.43;;
34060;SDS011;20336;-33.424;-70.638;2022-07-29T12:12:23;26.27;;;10.73;;
34060;SDS011;20336;-33.424;-70.638;2022-07-29T12:14:50;28.03;;;12.03;;
34060;SDS011;20336;-33.424;-70.638;2022-07-29T12:19:53;27.73;;;12.30;;
34060;SDS011;20336;-33.424;-70.638;2022-07-29T12:22:34;29.03;;;12.47;;
34060;SDS011;20336;-33.424;-70.638;2022-07-29T12:25:05;30.40;;;11.37;;
34060;SDS011;20336;-33.424;-70.638;2022-07-29T12:27:33;21.17;;;10.67;;
34060;SDS011;20336;-33.424;-70.638;2022-07-29T12:30:01;26.23;;;9.40;;
34060;SDS011;20336;-33.424;-70.638;2022-07-29T12:32:35;21.73;;;9.20;;
34060;SDS011;20336;-33.424;-70.638;2022-07-29T12:35:03;18.87;;;8.33;;
34060;SDS011;20336;-33.424;-70.638;2022-07-29T12:37:32;23.50;;;9.73;;
34060;SDS011;20336;-33.424;-70.638;2022-07-29T12:39:59;20.93;;;9.07;;
34060;SDS011;20336;-33.424;-70.638;2022-07-29T12:42:26;22.07;;;9.13;;
34060;SDS011;20336;-33.424;-70.638;2022-07-29T12:44:53;24.00;;;8.40;;
34060;SDS011;20336;-33.424;-70.638;2022-07-29T12:47:21;21.83;;;8.27;;
34060;SDS011;20336;-33.424;-70.638;2022-07-29T12:49:48;21.10;;;7.90;;
34060;SDS011;20336;-33.424;-70.638;2022-07-29T12:52:31;21.17;;;8.10;;
34060;SDS011;20336;-33.424;-70.638;2022-07-29T12:54:59;18.20;;;7.07;;
34060;SDS011;20336;-33.424;-70.638;2022-07-29T12:57:26;15.97;;;6.77;;
34060;SDS011;20336;-33.424;-70.638;2022-07-29T13:00:00;17.57;;;6.83;;
34060;SDS011;20336;-33.424;-70.638;2022-07-29T13:02:28;19.07;;;6.80;;
34060;SDS011;20336;-33.424;-70.638;2022-07-29T13:04:58;18.90;;;7.37;;
34060;SDS011;20336;-33.424;-70.638;2022-07-29T13:07:26;11.63;;;5.27;;
34060;SDS011;20336;-33.424;-70.638;2022-07-29T13:09:54;18.27;;;6.87;;
34060;SDS011;20336;-33.424;-70.638;2022-07-29T13:12:35;20.47;;;8.40;;
34060;SDS011;20336;-33.424;-70.638;2022-07-29T13:15:12;24.97;;;10.97;;
34060;SDS011;20336;-33.424;-70.638;2022-07-29T13:17:40;26.53;;;10.87;;
34060;SDS011;20336;-33.424;-70.638;2022-07-29T13:20:12;28.17;;;10.90;;
34060;SDS011;20336;-33.424;-70.638;2022-07-29T13:22:40;26.60;;;9.03;;
34060;SDS011;20336;-33.424;-70.638;2022-07-29T13:25:08;17.97;;;7.10;;
34060;SDS011;20336;-33.424;-70.638;2022-07-29T13:27:36;14.73;;;6.83;;
34060;SDS011;20336;-33.424;-70.638;2022-07-29T13:30:04;17.37;;;6.37;;
34060;SDS011;20336;-33.424;-70.638;2022-07-29T13:32:31;17.20;;;5.43;;
34060;SDS011;20336;-33.424;-70.638;2022-07-29T13:35:02;12.27;;;6.07;;
34060;SDS011;20336;-33.424;-70.638;2022-07-29T13:37:30;16.87;;;7.67;;
34060;SDS011;20336;-33.424;-70.638;2022-07-29T13:39:59;32.10;;;12.40;;
34060;SDS011;20336;-33.424;-70.638;2022-07-29T13:42:28;30.60;;;12.43;;
34060;SDS011;20336;-33.424;-70.638;2022-07-29T13:44:55;34.27;;;12.30;;
34060;SDS011;20336;-33.424;-70.638;2022-07-29T13:47:22;34.63;;;14.67;;
34060;SDS011;20336;-33.424;-70.638;2022-07-29T13:49:49;41.10;;;15.63;;
34060;SDS011;20336;-33.424;-70.638;2022-07-29T13:52:16;39.10;;;15.63;;
34060;SDS011;20336;-33.424;-70.638;2022-07-29T13:54:43;34.27;;;14.53;;
34060;SDS011;20336;-33.424;-70.638;2022-07-29T13:57:10;35.73;;;15.97;;
34060;SDS011;20336;-33.424;-70.638;2022-07-29T13:59:38;44.23;;;21.50;;
34060;SDS011;20336;-33.424;-70.638;2022-07-29T14:02:05;48.37;;;20.67;;
34060;SDS011;20336;-33.424;-70.638;2022-07-29T14:04:32;55.13;;;21.97;;
34060;SDS011;20336;-33.424;-70.638;2022-07-29T14:06:59;40.37;;;17.97;;
34060;SDS011;20336;-33.424;-70.638;2022-07-29T14:09:26;37.27;;;16.50;;
34060;SDS011;20336;-33.424;-70.638;2022-07-29T14:11:52;34.47;;;14.07;;
34060;SDS011;20336;-33.424;-70.638;2022-07-29T14:14:19;34.43;;;16.37;;
34060;SDS011;20336;-33.424;-70.638;2022-07-29T14:16:46;52.53;;;23.07;;
34060;SDS011;20336;-33.424;-70.638;2022-07-29T14:19:13;41.90;;;20.60;;
34060;SDS011;20336;-33.424;-70.638;2022-07-29T14:21:40;54.43;;;23.20;;
34060;SDS011;20336;-33.424;-70.638;2022-07-29T14:24:07;55.77;;;25.40;;
34060;SDS011;20336;-33.424;-70.638;2022-07-29T14:26:34;49.70;;;22.17;;
34060;SDS011;20336;-33.424;-70.638;2022-07-29T14:29:01;54.30;;;25.27;;
34060;SDS011;20336;-33.424;-70.638;2022-07-29T14:31:27;61.60;;;26.15;;
34060;SDS011;20336;-33.424;-70.638;2022-07-29T14:33:54;49.08;;;23.75;;